CST,Max TemperatureF,Mean TemperatureF,Min TemperatureF,Max Dew PointF,MeanDew PointF,Min DewpointF,Max Humidity, Mean Humidity, Min Humidity, Max Sea Level PressureIn, Mean Sea Level PressureIn, Min Sea Level PressureIn, Max VisibilityMiles, Mean VisibilityMiles, Min VisibilityMiles, Max Wind SpeedMPH, Mean Wind SpeedMPH, Max Gust SpeedMPH,PrecipitationIn, CloudCover, Events, WindDirDegrees
2012-11-1,80,70,59,64,60,57,94,72,45,30.09,30.04,30.00,7,7,7,10,5,,0.00,1,,36
2012-11-2,82,70,59,64,61,57,94,70,48,30.09,30.04,30.01,7,7,7,12,4,,0.00,3,,37
2012-11-3,82,74,66,68,64,61,88,70,51,30.09,30.04,29.99,7,7,7,15,5,,0.00,3,,49
2012-11-4,84,73,62,70,67,61,94,78,55,30.05,30.00,29.96,7,7,7,12,4,,0.00,3,,27
2012-11-5,86,76,66,70,68,64,100,81,55,30.01,29.97,29.93,7,7,7,9,4,,0.00,3,,351
2012-11-6,86,75,64,68,65,63,100,78,48,30.03,29.97,29.92,7,7,7,12,5,,0.00,3,,318
2012-11-7,80,71,59,70,62,55,100,78,48,30.06,30.01,29.96,7,7,6,12,4,24,0.00,3,Rain,332
2012-11-8,80,70,59,61,58,54,94,73,42,30.11,30.06,30.03,7,7,7,10,5,,0.00,1,,337
2012-11-9,78,69,60,68,60,55,88,72,57,30.13,30.07,30.03,7,7,6,12,6,,0.00,4,,12
2012-11-10,80,70,59,66,61,55,88,66,48,30.13,30.06,30.02,7,7,6,16,6,,0.00,4,Rain,56
2012-11-11,82,78,75,66,64,61,73,61,54,30.10,30.05,30.01,7,7,6,14,8,,0.00,4,,79
2012-11-12,82,78,73,70,65,63,73,65,58,30.10,30.05,30.00,7,7,7,16,8,,0.00,4,,63
2012-11-13,84,74,64,70,66,61,94,75,54,30.09,30.04,30.00,7,7,7,14,4,,0.00,3,,9
2012-11-14,80,74,68,70,67,64,94,82,61,30.09,30.05,30.00,7,7,5,14,5,,0.00,4,Rain,21
2012-11-15,82,73,64,68,65,63,94,77,54,30.09,30.05,30.02,7,7,4,15,5,,0.00,2,Rain,5
2012-11-16,82,73,64,70,66,63,94,84,61,30.09,30.05,30.01,7,7,6,10,4,,0.00,3,,339
2012-11-17,82,71,60,68,63,61,100,80,51,30.08,30.03,29.98,7,7,7,16,7,,0.00,1,,306
2012-11-18,78,71,64,68,66,64,100,85,61,30.06,30.03,29.98,7,7,7,14,7,,0.00,5,,324
2012-11-19,84,74,64,70,66,63,94,81,54,30.08,30.02,29.98,7,7,3,8,3,,0.00,4,Fog,8
2012-11-20,78,71,62,72,67,61,100,86,65,30.08,30.04,29.99,7,6,2,8,3,,0.55,4,Rain,354
2012-11-21,78,69,60,66,61,57,94,77,54,30.09,30.05,30.02,7,7,7,17,6,,0.00,1,,338
2012-11-22,78,68,57,63,59,55,94,71,44,30.13,30.08,30.03,7,7,7,15,6,,0.00,4,,358
2012-11-23,78,70,62,61,58,55,82,64,44,30.16,30.12,30.09,7,7,7,8,5,,0.00,6,,349
2012-11-24,78,69,60,63,59,55,94,71,44,30.17,30.11,29.93,7,7,7,9,5,,0.00,6,,333
2012-11-25,80,71,62,64,61,59,94,75,51,30.13,30.08,30.03,7,7,7,8,4,,0.00,4,,4
2012-11-26,80,72,64,66,63,61,100,74,51,30.13,30.08,30.00,7,7,7,10,4,,0.00,3,,46
2012-11-27,82,74,66,73,69,63,94,84,70,30.16,30.09,30.03,7,7,6,8,4,,0.15,7,Rain,19
2012-11-28,80,74,66,72,67,63,100,78,65,30.19,30.14,30.10,7,7,6,9,5,,0.00,7,,24
2012-11-29,80,72,64,68,64,63,94,78,54,30.15,30.10,30.06,7,7,7,14,4,,0.00,4,,19
2012-11-30,82,72,62,70,66,63,100,83,57,30.12,30.07,30.02,8,7,7,14,4,,0.00,3,,351